Time;durP1;ratioP1;P1;durP2;ratioP2;P2;SDS_P1;SDS_P2;PMS_P1;PMS_P2;Temp;Humidity;BMP_temperature;BMP_pressure;BME280_temperature;BME280_humidity;BME280_pressure;Samples;Min_cycle;Max_cycle;Signal;HPM_P1;HPM_P2
2022/08/19 00:02:46;;;;;;;61.35;47.08;;;;;;;14.73;100.00;101098.78;10444937;28;20581;-78
2022/08/19 00:07:47;;;;;;;62.85;48.50;;;;;;;14.67;100.00;101092.44;10445632;28;20033;-78
2022/08/19 00:12:47;;;;;;;60.85;42.88;;;;;;;14.59;100.00;101087.75;10427088;28;20029;-77
2022/08/19 00:17:48;;;;;;;68.93;50.63;;;;;;;14.66;100.00;101097.66;10442289;28;20373;-78
2022/08/19 00:22:48;;;;;;;70.90;50.88;;;;;;;14.60;100.00;101103.59;10425857;28;20037;-78
2022/08/19 00:27:49;;;;;;;64.63;49.63;;;;;;;14.54;100.00;101108.66;10444899;28;20112;-78
2022/08/19 00:32:50;;;;;;;64.70;46.70;;;;;;;14.55;100.00;101097.25;10426053;28;20076;-78
2022/08/19 00:37:50;;;;;;;75.63;54.17;;;;;;;14.50;100.00;101098.84;10444384;28;20028;-78
2022/08/19 00:42:53;;;;;;;71.47;49.30;;;;;;;14.41;100.00;101101.16;10443069;28;20563;-78
2022/08/19 00:47:54;;;;;;;71.85;48.58;;;;;;;14.34;100.00;101105.31;10443723;28;20389;-78
2022/08/19 00:52:54;;;;;;;63.03;45.97;;;;;;;14.23;100.00;101102.28;10442082;28;20052;-77
2022/08/19 00:57:56;;;;;;;61.90;46.72;;;;;;;14.16;100.00;101097.63;10443498;28;20503;-78
2022/08/19 01:02:57;;;;;;;63.17;45.03;;;;;;;14.15;100.00;101103.72;10425547;28;20124;-78
2022/08/19 01:07:59;;;;;;;73.78;49.95;;;;;;;14.10;100.00;101099.19;10425641;28;20059;-77
2022/08/19 01:12:59;;;;;;;73.80;50.85;;;;;;;14.00;100.00;101097.06;10441248;28;20397;-77
2022/08/19 01:18:04;;;;;;;78.75;54.72;;;;;;;13.89;100.00;101106.28;10425815;28;20040;-77
2022/08/19 01:23:05;;;;;;;75.22;55.10;;;;;;;13.87;100.00;101122.03;10440934;28;20448;-78
2022/08/19 01:28:05;;;;;;;83.90;50.50;;;;;;;13.82;100.00;101126.22;10440514;28;20108;-78
2022/08/19 01:33:06;;;;;;;74.18;50.22;;;;;;;13.73;100.00;101121.47;10448101;28;20055;-78
2022/08/19 01:38:09;;;;;;;72.97;49.85;;;;;;;13.68;100.00;101125.66;10451100;28;20045;-78
2022/08/19 01:43:10;;;;;;;68.28;48.20;;;;;;;13.59;100.00;101120.97;10432635;28;20035;-78
2022/08/19 01:48:11;;;;;;;78.15;51.60;;;;;;;13.51;100.00;101117.13;10449173;28;20624;-78
2022/08/19 01:53:12;;;;;;;82.03;52.83;;;;;;;13.41;100.00;101130.72;10450954;28;20068;-78
2022/08/19 01:58:18;;;;;;;75.18;51.80;;;;;;;13.43;100.00;101136.97;10449551;28;20052;-78
2022/08/19 02:03:19;;;;;;;74.18;49.30;;;;;;;13.35;100.00;101139.22;10432451;28;20053;-78
2022/08/19 02:08:19;;;;;;;71.80;52.53;;;;;;;13.30;100.00;101146.03;10448331;28;20041;-78
2022/08/19 02:13:20;;;;;;;85.65;55.63;;;;;;;13.23;100.00;101144.91;10408822;28;20034;-78
2022/08/19 02:18:20;;;;;;;79.50;51.90;;;;;;;13.14;100.00;101144.53;10406629;28;20401;-78
2022/08/19 02:23:21;;;;;;;92.10;57.97;;;;;;;13.17;100.00;101137.66;10406455;28;20061;-78
2022/08/19 02:28:21;;;;;;;89.68;56.58;;;;;;;13.11;100.00;101137.38;10408583;28;20568;-77
2022/08/19 02:33:22;;;;;;;85.22;54.45;;;;;;;13.16;100.00;101142.84;10406218;28;20098;-78
2022/08/19 02:38:25;;;;;;;87.88;58.13;;;;;;;13.16;100.00;101149.00;10408021;28;20577;-77
2022/08/19 02:43:26;;;;;;;89.55;57.53;;;;;;;13.17;100.00;101137.66;10406028;28;20113;-77
2022/08/19 02:48:26;;;;;;;97.20;61.40;;;;;;;13.20;100.00;101139.53;10407869;28;20030;-77
2022/08/19 02:53:27;;;;;;;92.65;61.00;;;;;;;13.14;100.00;101134.88;10407191;28;20120;-77
2022/08/19 02:58:27;;;;;;;113.13;70.32;;;;;;;13.21;100.00;101129.06;10405064;28;20046;-77
2022/08/19 03:03:28;;;;;;;115.75;65.82;;;;;;;13.24;100.00;101128.31;10406558;28;20034;-77
2022/08/19 03:08:29;;;;;;;117.15;69.53;;;;;;;13.21;100.00;101136.94;10404925;28;20071;-77
2022/08/19 03:13:30;;;;;;;111.80;66.87;;;;;;;13.21;100.00;101139.56;10404655;28;20485;-77
2022/08/19 03:18:30;;;;;;;118.60;71.93;;;;;;;13.25;100.00;101137.97;10404850;28;20050;-77
2022/08/19 03:23:31;;;;;;;105.63;66.82;;;;;;;13.27;100.00;101144.19;10404527;28;20053;-77
2022/08/19 03:28:32;;;;;;;114.80;72.95;;;;;;;13.38;100.00;101149.88;10436555;28;20366;-77
2022/08/19 03:33:33;;;;;;;135.23;78.05;;;;;;;13.49;100.00;101153.88;10403531;28;20045;-79
2022/08/19 03:38:35;;;;;;;141.90;78.93;;;;;;;13.61;100.00;101153.47;10404594;28;20037;-79
2022/08/19 03:43:36;;;;;;;142.45;77.78;;;;;;;13.87;100.00;101156.22;10402333;28;20061;-79
2022/08/19 03:48:38;;;;;;;143.50;77.77;;;;;;;14.02;100.00;101150.66;10403730;28;20057;-77
2022/08/19 03:53:38;;;;;;;133.77;77.43;;;;;;;14.02;100.00;101155.91;10402774;28;20034;-76
2022/08/19 03:58:39;;;;;;;141.40;79.63;;;;;;;14.05;100.00;101153.41;10404749;28;20489;-76
2022/08/19 04:03:40;;;;;;;130.65;73.85;;;;;;;13.95;100.00;101144.28;10402786;28;20037;-76
2022/08/19 04:08:41;;;;;;;138.30;75.75;;;;;;;13.92;100.00;101151.13;10401303;28;20128;-76
2022/08/19 04:13:44;;;;;;;141.45;81.40;;;;;;;13.86;100.00;101159.69;10402504;28;20045;-76
2022/08/19 04:18:44;;;;;;;;;;;;;;;13.80;100.00;101156.84;10403437;28;20498;-76
2022/08/19 04:23:45;;;;;;;129.98;72.90;;;;;;;13.82;100.00;101149.00;10403062;28;19974;-77
2022/08/19 04:28:45;;;;;;;118.63;71.13;;;;;;;13.78;100.00;101158.50;10402113;28;20428;-77
2022/08/19 04:33:46;;;;;;;118.35;69.68;;;;;;;13.71;100.00;101156.47;10440319;28;20120;-77
2022/08/19 04:38:48;;;;;;;117.72;68.25;;;;;;;13.64;100.00;101152.69;10408901;28;20606;-77
2022/08/19 04:43:48;;;;;;;120.10;68.83;;;;;;;13.57;100.00;101148.03;10425765;28;20029;-77
2022/08/19 04:48:49;;;;;;;118.82;66.60;;;;;;;13.47;100.00;101154.66;10442547;28;20067;-76
2022/08/19 04:53:50;;;;;;;98.40;59.13;;;;;;;13.47;100.00;101158.16;10441828;28;20091;-77
2022/08/19 04:58:51;;;;;;;123.43;69.82;;;;;;;13.54;100.00;101161.03;10425069;28;20120;-77
2022/08/19 05:03:52;;;;;;;105.53;62.63;;;;;;;13.49;100.00;101164.38;10442448;28;20045;-77
2022/08/19 05:08:53;;;;;;;117.25;64.20;;;;;;;13.51;100.00;101167.09;10441953;28;20069;-77
2022/08/19 05:13:53;;;;;;;110.63;62.97;;;;;;;13.55;100.00;101170.72;10441038;28;20397;-77
2022/08/19 05:24:14;;;;;;;118.97;67.43;;;;;;;13.65;100.00;101180.78;10442244;28;20037;-76
2022/08/19 05:29:16;;;;;;;94.80;56.75;;;;;;;13.79;100.00;101190.13;10440619;28;20041;-76
2022/08/19 05:34:17;;;;;;;119.50;68.45;;;;;;;14.04;100.00;101201.59;10424103;28;20366;-77
2022/08/19 05:39:19;;;;;;;86.53;54.87;;;;;;;14.15;100.00;101182.69;10424198;28;20037;-77
2022/08/19 05:44:21;;;;;;;83.72;55.85;;;;;;;14.11;100.00;101176.44;10441331;28;20037;-77
2022/08/19 05:49:22;;;;;;;112.63;66.75;;;;;;;14.34;100.00;101173.78;10440546;28;20545;-76
2022/08/19 05:54:23;;;;;;;143.02;78.88;;;;;;;14.78;100.00;101182.44;10424579;28;20069;-77
2022/08/19 05:59:23;;;;;;;125.32;73.03;;;;;;;15.24;100.00;101193.66;10440551;28;20072;-77
2022/08/19 06:04:25;;;;;;;79.47;52.30;;;;;;;15.81;100.00;101185.78;10424334;28;20038;-77
2022/08/19 06:09:25;;;;;;;71.43;49.13;;;;;;;16.62;100.00;101186.41;10440312;28;20119;-77
2022/08/19 06:14:28;;;;;;;67.65;45.38;;;;;;;17.58;100.00;101186.28;10439540;28;20040;-77
2022/08/19 06:19:30;;;;;;;55.58;41.08;;;;;;;18.01;96.96;101185.50;10431632;28;20029;-78
2022/08/19 06:24:31;;;;;;;69.53;44.77;;;;;;;18.52;92.61;101193.63;10431057;28;20044;-77
2022/08/19 06:29:32;;;;;;;58.47;39.80;;;;;;;19.08;89.60;101193.84;10447709;28;20121;-77
2022/08/19 06:34:32;;;;;;;50.75;37.88;;;;;;;19.97;83.96;101191.72;10431204;28;20111;-77
2022/08/19 06:39:35;;;;;;;54.65;38.08;;;;;;;19.54;81.23;101200.78;10413572;28;20079;-78
2022/08/19 06:44:36;;;;;;;52.00;38.60;;;;;;;18.85;86.14;101209.31;10430248;28;20047;-77
2022/08/19 06:49:36;;;;;;;50.42;38.33;;;;;;;19.26;87.04;101208.28;10446204;28;20067;-77
2022/08/19 06:54:37;;;;;;;49.65;37.53;;;;;;;19.65;82.26;101200.97;10448640;28;20041;-77
2022/08/19 06:59:38;;;;;;;44.10;34.33;;;;;;;19.20;84.74;101208.19;10445899;28;20041;-77
2022/08/19 07:04:39;;;;;;;45.33;32.70;;;;;;;19.65;84.01;101204.50;10447924;28;20057;-77
2022/08/19 07:09:41;;;;;;;50.17;32.80;;;;;;;20.75;79.06;101210.41;10448392;28;20469;-77
2022/08/19 07:14:42;;;;;;;43.33;33.10;;;;;;;21.01;75.87;101209.81;10429053;28;20373;-77
2022/08/19 07:19:42;;;;;;;46.28;32.25;;;;;;;20.95;76.38;101210.66;10445825;28;20030;-77
2022/08/19 07:24:43;;;;;;;52.38;34.08;;;;;;;20.73;75.63;101206.84;10446437;28;20052;-78
2022/08/19 07:29:45;;;;;;;45.20;32.67;;;;;;;20.47;76.67;101215.41;10428395;28;20033;-78
2022/08/19 07:34:46;;;;;;;46.33;30.58;;;;;;;20.80;75.59;101215.81;10446715;28;20465;-78
2022/08/19 07:39:46;;;;;;;40.10;31.05;;;;;;;21.54;72.40;101221.84;10446496;28;20087;-77
2022/08/19 07:44:47;;;;;;;40.53;28.50;;;;;;;21.46;72.87;101223.53;10445182;28;20123;-77
2022/08/19 07:49:48;;;;;;;39.83;26.00;;;;;;;22.02;71.15;101234.63;10427624;28;20120;-78
2022/08/19 07:54:49;;;;;;;34.42;27.33;;;;;;;23.03;67.08;101243.03;10444189;28;20037;-77
2022/08/19 07:59:50;;;;;;;31.57;24.67;;;;;;;22.64;66.59;101237.63;10426708;28;20056;-77
2022/08/19 08:10:09;;;;;;;35.30;24.90;;;;;;;25.63;57.73;101243.13;10445088;28;20473;-78
2022/08/19 08:15:15;;;;;;;33.23;25.70;;;;;;;25.02;59.61;101248.94;10426446;28;20036;-77
2022/08/19 08:20:16;;;;;;;32.35;25.90;;;;;;;25.25;57.51;101252.34;10427937;28;20036;-77
2022/08/19 08:25:19;;;;;;;34.97;26.53;;;;;;;24.71;59.13;101261.56;10442153;28;20476;-78
2022/08/19 08:30:22;;;;;;;29.80;23.05;;;;;;;25.39;57.94;101252.25;10444171;28;20463;-78
2022/08/19 08:35:23;;;;;;;28.35;21.58;;;;;;;26.77;52.88;101245.44;10442462;28;20040;-77
2022/08/19 08:40:41;;;;;;;31.45;21.75;;;;;;;27.63;53.19;101253.13;10425267;28;20053;-77
2022/08/19 08:45:46;;;;;;;27.63;18.98;;;;;;;26.78;51.34;101268.69;10443047;28;20029;-77
2022/08/19 08:50:48;;;;;;;28.30;18.63;;;;;;;27.40;50.50;101267.81;10425804;28;20040;-77
2022/08/19 08:55:48;;;;;;;20.88;17.88;;;;;;;28.02;50.38;101263.19;10441751;28;20384;-77
2022/08/19 09:00:49;;;;;;;21.93;17.67;;;;;;;25.78;54.26;101268.94;10441907;28;20043;-78
2022/08/19 09:06:11;;;;;;;29.17;18.90;;;;;;;24.83;56.12;101269.56;10425586;28;20576;-77
2022/08/19 09:11:36;;;;;;;22.63;18.60;;;;;;;24.76;58.50;101268.72;10425998;28;20048;-77
2022/08/19 09:16:40;;;;;;;27.60;14.77;;;;;;;26.09;56.30;101261.44;10441896;28;20060;-78
2022/08/19 09:21:40;;;;;;;18.95;15.65;;;;;;;27.42;51.54;101257.94;10443744;28;20057;-78
2022/08/19 09:26:43;;;;;;;18.27;13.67;;;;;;;27.96;49.80;101250.75;10440825;28;20548;-78
2022/08/19 09:31:44;;;;;;;16.55;13.00;;;;;;;27.69;49.82;101248.56;10441028;28;20057;-78
2022/08/19 09:36:44;;;;;;;20.47;13.30;;;;;;;28.85;46.81;101248.06;10441606;28;20037;-77
2022/08/19 09:41:45;;;;;;;14.07;12.40;;;;;;;29.34;44.88;101245.13;10441732;28;20160;-77
2022/08/19 09:46:46;;;;;;;17.00;12.43;;;;;;;29.86;43.25;101256.38;10441430;28;20561;-78
2022/08/19 09:51:51;;;;;;;15.13;13.15;;;;;;;30.51;40.86;101245.59;10427695;28;20120;-78
2022/08/19 09:56:52;;;;;;;17.65;12.88;;;;;;;30.01;41.18;101248.81;10432929;28;20029;-78
2022/08/19 10:01:53;;;;;;;10.25;8.85;;;;;;;30.23;40.16;101240.13;10448445;28;20044;-78
2022/08/19 10:06:55;;;;;;;18.50;13.30;;;;;;;29.91;40.56;101242.78;10449718;28;20497;-77
2022/08/19 10:11:56;;;;;;;16.92;11.02;;;;;;;30.13;41.40;101251.19;10448825;28;20040;-77
2022/08/19 10:16:56;;;;;;;14.23;12.30;;;;;;;28.96;41.76;101238.84;10447975;28;20480;-76
2022/08/19 10:21:57;;;;;;;14.67;11.57;;;;;;;28.01;44.85;101243.47;10447468;28;20127;-77
2022/08/19 10:26:57;;;;;;;13.63;11.00;;;;;;;28.75;44.24;101240.19;10457794;28;20030;-78
2022/08/19 10:32:01;;;;;;;18.33;12.73;;;;;;;28.99;43.55;101228.88;10448094;28;20123;-77
2022/08/19 10:37:04;;;;;;;13.45;9.93;;;;;;;31.48;38.37;101224.53;10447847;28;20029;-77
2022/08/19 10:42:10;;;;;;;12.93;10.55;;;;;;;31.48;38.05;101230.84;10429523;28;20033;-78
2022/08/19 10:47:10;;;;;;;11.52;8.88;;;;;;;31.52;37.74;101218.09;10448776;28;20031;-77
2022/08/19 10:57:30;;;;;;;10.82;7.75;;;;;;;31.95;35.29;101215.72;10446401;28;20276;-77
2022/08/19 11:02:32;;;;;;;;;;;;;;;32.50;34.18;101215.47;10428616;28;20076;-76
2022/08/19 11:07:33;;;;;;;10.32;9.20;;;;;;;31.91;35.35;101228.47;10446189;28;19928;-77
2022/08/19 11:12:33;;;;;;;12.93;8.90;;;;;;;31.44;36.20;101223.78;10447585;28;20071;-77
2022/08/19 11:17:35;;;;;;;9.20;6.20;;;;;;;31.77;36.12;101214.56;10445390;28;20260;-78
2022/08/19 11:22:36;;;;;;;7.63;6.18;;;;;;;32.13;35.92;101221.38;10445343;28;20404;-77
2022/08/19 11:27:42;;;;;;;14.70;7.60;;;;;;;31.02;36.71;101217.00;10445175;28;20068;-78
2022/08/19 11:32:42;;;;;;;9.90;6.65;;;;;;;31.54;35.89;101209.94;10445252;28;20124;-78
2022/08/19 11:37:43;;;;;;;7.30;6.50;;;;;;;31.68;35.87;101196.81;10428086;28;20131;-78
2022/08/19 11:42:56;;;;;;;8.73;5.03;;;;;;;32.97;33.50;101196.50;10445165;28;20426;-78
2022/08/19 11:47:56;;;;;;;9.13;5.60;;;;;;;33.57;32.26;101199.38;10444209;28;20029;-78
2022/08/19 11:52:57;;;;;;;5.43;4.32;;;;;;;32.55;32.14;101199.03;10443787;28;20037;-78
2022/08/19 11:57:57;;;;;;;6.17;4.20;;;;;;;33.62;32.46;101200.06;10446770;28;20044;-78
2022/08/19 12:02:58;;;;;;;8.95;5.30;;;;;;;34.03;33.63;101207.34;10444071;28;20781;-78
2022/08/19 12:07:58;;;;;;;;;;;;;;;34.16;32.32;101202.19;10444499;28;20045;-78
2022/08/19 12:12:59;;;;;;;15.40;5.60;;;;;;;33.20;33.73;101192.81;10443241;28;19921;-78
2022/08/19 12:17:59;;;;;;;;;;;;;;;33.61;33.70;101194.72;10444109;28;20060;-79
2022/08/19 12:23:00;;;;;;;8.30;5.03;;;;;;;33.32;32.13;101192.28;10445121;28;20396;-79
2022/08/19 12:28:00;;;;;;;9.30;5.97;;;;;;;33.64;32.39;101202.72;10444497;28;20124;-79
2022/08/19 12:33:01;;;;;;;9.60;5.80;;;;;;;30.18;38.18;101208.75;10444855;28;20476;-78
2022/08/19 12:38:02;;;;;;;6.37;5.47;;;;;;;31.86;35.71;101180.88;10444477;28;20032;-79
2022/08/19 12:43:03;;;;;;;8.43;5.35;;;;;;;30.80;37.93;101184.44;10441849;28;20129;-78
2022/08/19 12:48:04;;;;;;;;;;;;;;;29.79;38.15;101187.34;10442744;28;20033;-78
2022/08/19 12:53:05;;;;;;;9.53;4.63;;;;;;;29.45;41.80;101183.78;10442829;28;20388;-78
2022/08/19 12:58:05;;;;;;;9.20;5.50;;;;;;;29.78;38.85;101179.31;10443162;28;20124;-77
2022/08/19 13:03:06;;;;;;;9.40;6.07;;;;;;;29.34;41.58;101171.44;10443327;28;20102;-78
2022/08/19 13:08:06;;;;;;;6.97;4.10;;;;;;;30.55;38.49;101174.38;10443808;28;20029;-78
2022/08/19 13:13:08;;;;;;;9.10;7.10;;;;;;;30.79;38.79;101174.56;10442851;28;20041;-78
2022/08/19 13:18:10;;;;;;;7.30;5.78;;;;;;;30.00;41.49;101166.13;10441401;28;20033;-78
2022/08/19 13:23:10;;;;;;;10.55;5.70;;;;;;;30.64;40.47;101178.63;10440904;28;20061;-78
2022/08/19 13:28:11;;;;;;;8.57;6.37;;;;;;;29.94;42.88;101183.34;10424274;28;20043;-78
2022/08/19 13:33:11;;;;;;;7.67;4.70;;;;;;;30.69;40.36;101176.66;10424507;28;20044;-79
2022/08/19 13:38:12;;;;;;;12.97;6.43;;;;;;;31.81;38.85;101156.69;10442741;28;20138;-77
2022/08/19 13:43:13;;;;;;;8.57;4.65;;;;;;;32.00;38.17;101161.41;10425105;28;20055;-77
2022/08/19 13:48:14;;;;;;;5.18;3.97;;;;;;;31.86;38.89;101156.53;10461633;28;20068;-78
2022/08/19 13:53:14;;;;;;;5.77;3.20;;;;;;;32.46;38.15;101162.34;10424892;28;20128;-78
2022/08/19 13:58:15;;;;;;;4.70;2.97;;;;;;;32.25;37.58;101152.34;10403528;28;20045;-78
2022/08/19 14:03:15;;;;;;;5.40;3.63;;;;;;;32.57;37.59;101144.78;10434963;28;20047;-78
2022/08/19 14:08:16;;;;;;;5.20;4.28;;;;;;;32.03;38.11;101145.03;10453412;28;20751;-80
2022/08/19 14:13:19;;;;;;;5.20;3.90;;;;;;;30.15;42.73;101154.00;10423284;28;20122;-79
2022/08/19 14:18:20;;;;;;;5.43;3.53;;;;;;;30.83;40.50;101149.22;10422877;28;20170;-79
2022/08/19 14:23:21;;;;;;;5.63;2.77;;;;;;;31.39;39.83;101141.94;10425797;28;20124;-79
2022/08/19 14:28:22;;;;;;;5.45;3.83;;;;;;;29.33;43.49;101138.25;10419337;28;20103;-78
2022/08/19 14:33:22;;;;;;;5.47;3.88;;;;;;;27.21;49.16;101149.91;10418073;28;20037;-79
2022/08/19 14:38:23;;;;;;;7.90;5.37;;;;;;;26.32;52.29;101141.41;10405659;28;20124;-79
2022/08/19 14:43:23;;;;;;;5.00;3.53;;;;;;;26.27;53.09;101130.72;10421405;28;20041;-80
2022/08/19 14:48:24;;;;;;;7.80;4.77;;;;;;;26.52;52.41;101133.97;10432054;28;21136;-79
2022/08/19 14:53:25;;;;;;;5.00;3.67;;;;;;;26.84;52.52;101126.34;10447913;28;20043;-80
2022/08/19 14:58:26;;;;;;;6.55;2.83;;;;;;;27.72;51.97;101133.81;10476672;28;20040;-80
2022/08/19 15:03:27;;;;;;;4.93;2.83;;;;;;;30.13;45.11;101139.66;10441132;28;20116;-79
2022/08/19 15:08:28;;;;;;;5.05;3.55;;;;;;;29.07;45.55;101134.41;10397444;28;20038;-79
2022/08/19 15:13:29;;;;;;;;;;;;;;;28.67;48.16;101136.25;10385234;28;20033;-81
2022/08/19 15:18:29;;;;;;;7.20;2.67;;;;;;;29.30;46.13;101139.19;10401395;28;19921;-80
2022/08/19 15:23:30;;;;;;;5.20;2.63;;;;;;;30.00;44.45;101149.94;10384887;28;20117;-79
2022/08/19 15:28:32;;;;;;;3.80;2.77;;;;;;;29.88;44.23;101153.84;10386427;28;20124;-80
2022/08/19 15:33:36;;;;;;;6.15;3.97;;;;;;;28.28;47.05;101157.75;10395465;28;20120;-80
2022/08/19 15:38:36;;;;;;;5.32;3.63;;;;;;;27.33;50.86;101161.34;10363939;28;20069;-79
2022/08/19 15:43:37;;;;;;;3.87;2.60;;;;;;;27.48;49.87;101165.56;10378818;28;20091;-79
2022/08/19 15:48:37;;;;;;;8.73;4.13;;;;;;;26.50;52.24;101169.78;10395997;28;20852;-79
2022/08/19 15:53:39;;;;;;;6.07;2.93;;;;;;;25.44;56.29;101165.56;10445227;28;20461;-79
2022/08/19 16:09:19;;;;;;;5.00;3.67;;;;;;;24.44;60.79;101167.16;10486679;28;20048;-78
2022/08/19 16:14:20;;;;;;;;;;;;;;;24.19;60.60;101168.19;10466615;28;20472;-79
2022/08/19 16:19:20;;;;;;;10.55;3.85;;;;;;;23.88;61.75;101180.72;10484674;28;19920;-79
2022/08/19 16:24:22;;;;;;;5.77;2.93;;;;;;;23.60;62.33;101183.44;10486607;28;20174;-78
2022/08/19 16:29:23;;;;;;;11.25;5.20;;;;;;;23.39;62.67;101193.25;10466922;28;20111;-79
2022/08/19 16:34:24;;;;;;;5.87;3.20;;;;;;;23.27;63.55;101183.50;10485120;28;20090;-81
2022/08/19 16:39:25;;;;;;;8.45;3.50;;;;;;;23.20;63.92;101186.13;10485626;28;20476;-80
2022/08/19 16:44:26;;;;;;;6.43;4.00;;;;;;;23.14;65.09;101185.22;10485293;28;20032;-79
2022/08/19 16:49:27;;;;;;;8.17;3.83;;;;;;;23.17;64.74;101185.22;10485233;28;20525;-83
2022/08/19 16:54:27;;;;;;;6.80;3.97;;;;;;;23.08;65.30;101190.56;10483129;28;20849;-83
2022/08/19 16:59:28;;;;;;;5.17;3.57;;;;;;;22.96;67.69;101177.19;10483648;28;20127;-81
2022/08/19 17:04:28;;;;;;;6.23;3.40;;;;;;;22.83;67.61;101177.19;10465947;28;20079;-81
2022/08/19 17:09:31;;;;;;;8.60;3.80;;;;;;;22.70;69.11;101178.03;10483821;28;20082;-82
2022/08/19 17:14:31;;;;;;;7.97;3.40;;;;;;;22.57;68.96;101183.34;10483067;28;20033;-81
2022/08/19 17:19:32;;;;;;;6.97;4.95;;;;;;;22.40;70.43;101190.38;10465968;28;20480;-82
2022/08/19 17:24:32;;;;;;;5.97;4.03;;;;;;;22.18;71.24;101181.41;10482806;28;20392;-81
2022/08/19 17:29:33;;;;;;;5.72;3.88;;;;;;;21.97;72.66;101177.75;10482429;28;20511;-81
2022/08/19 17:34:33;;;;;;;7.80;4.32;;;;;;;21.90;73.94;101195.47;10482658;28;20028;-81
2022/08/19 17:39:34;;;;;;;7.22;4.75;;;;;;;21.78;73.28;101185.63;10482608;28;20071;-81
2022/08/19 17:44:35;;;;;;;6.57;4.77;;;;;;;21.62;74.38;101179.28;10483787;28;20025;-81
2022/08/19 17:49:36;;;;;;;7.90;3.88;;;;;;;21.36;75.73;101187.06;10466437;28;20056;-81
2022/08/19 17:54:37;;;;;;;6.57;3.63;;;;;;;21.18;77.49;101201.09;10481409;28;20036;-81
2022/08/19 17:59:38;;;;;;;6.03;4.05;;;;;;;21.06;80.91;101189.47;10482895;28;20451;-80
2022/08/19 18:04:38;;;;;;;8.25;3.95;;;;;;;20.97;80.67;101205.34;10482181;28;20036;-80
2022/08/19 18:09:39;;;;;;;7.57;4.43;;;;;;;21.03;79.63;101215.16;10482823;28;20047;-81
2022/08/19 18:14:40;;;;;;;5.10;2.72;;;;;;;20.89;82.33;101221.25;10489619;28;20047;-81
2022/08/19 18:19:41;;;;;;;4.88;3.47;;;;;;;20.48;87.08;101230.47;10489121;28;20391;-81
2022/08/19 18:24:41;;;;;;;10.32;4.97;;;;;;;19.96;93.26;101236.00;10455914;28;20039;-78
2022/08/19 18:29:42;;;;;;;7.80;5.30;;;;;;;19.57;97.70;101245.97;10472172;28;20396;-77
2022/08/19 18:34:44;;;;;;;7.35;5.03;;;;;;;19.26;100.00;101242.78;10488084;28;20036;-78
2022/08/19 18:50:24;;;;;;;12.23;8.07;;;;;;;18.83;100.00;101250.81;10474156;28;20136;-80
2022/08/19 18:55:27;;;;;;;8.80;6.80;;;;;;;18.73;100.00;101244.41;10488968;28;20035;-79
2022/08/19 19:00:28;;;;;;;12.98;6.95;;;;;;;18.60;100.00;101252.97;10471134;28;20040;-79
2022/08/19 19:05:29;;;;;;;16.50;8.75;;;;;;;18.50;100.00;101262.53;10471465;28;20056;-79
2022/08/19 19:10:29;;;;;;;10.55;8.45;;;;;;;18.41;100.00;101260.53;10488814;28;20079;-79
2022/08/19 19:15:30;;;;;;;9.20;7.20;;;;;;;18.34;100.00;101262.19;10469898;28;20072;-79
2022/08/19 19:20:31;;;;;;;11.20;8.57;;;;;;;18.27;100.00;101273.50;10470723;28;20139;-79
2022/08/19 19:25:33;;;;;;;13.57;8.70;;;;;;;18.26;100.00;101276.09;10484883;28;20029;-79
2022/08/19 19:30:33;;;;;;;15.85;9.55;;;;;;;18.16;100.00;101281.19;10487916;28;20065;-79
2022/08/19 19:35:34;;;;;;;15.00;10.05;;;;;;;18.09;100.00;101283.69;10486426;28;20066;-77
2022/08/19 19:40:34;;;;;;;12.93;10.60;;;;;;;18.01;100.00;101287.03;10469345;28;20116;-77
2022/08/19 19:45:36;;;;;;;13.98;10.68;;;;;;;17.97;100.00;101292.19;10486842;28;20154;-77
2022/08/19 19:50:37;;;;;;;13.75;9.95;;;;;;;17.88;100.00;101293.75;10469400;28;20170;-78
2022/08/19 19:55:40;;;;;;;22.33;13.75;;;;;;;17.89;100.00;101306.13;10469189;28;20024;-78
2022/08/19 20:00:40;;;;;;;12.38;9.43;;;;;;;17.82;100.00;101304.19;10486632;28;20051;-78
2022/08/19 20:05:41;;;;;;;13.40;10.88;;;;;;;17.76;100.00;101304.03;10487025;28;20040;-77
2022/08/19 20:10:42;;;;;;;15.90;11.65;;;;;;;17.69;100.00;101300.34;10485569;28;20033;-78
2022/08/19 20:15:42;;;;;;;18.52;12.38;;;;;;;17.72;100.00;101310.09;10484107;28;20434;-78
2022/08/19 20:20:43;;;;;;;14.45;11.25;;;;;;;17.75;100.00;101307.53;10451220;28;20036;-77
2022/08/19 20:25:44;;;;;;;14.73;10.95;;;;;;;17.72;100.00;101310.09;10483816;28;20767;-78
2022/08/19 20:30:45;;;;;;;18.50;11.18;;;;;;;17.67;100.00;101315.31;10485999;28;20085;-77
2022/08/19 20:35:45;;;;;;;18.65;11.30;;;;;;;17.61;100.00;101312.50;10467232;28;20064;-77
2022/08/19 20:40:46;;;;;;;16.52;13.10;;;;;;;17.65;100.00;101324.97;10483099;28;20029;-77
2022/08/19 20:45:46;;;;;;;25.90;14.32;;;;;;;17.63;100.00;101323.09;10485504;28;20123;-78
2022/08/19 20:50:47;;;;;;;17.50;12.27;;;;;;;17.58;100.00;101323.88;10485520;28;20067;-78
2022/08/19 20:55:50;;;;;;;14.43;12.35;;;;;;;17.48;100.00;101318.31;10482739;28;20074;-78
2022/08/19 21:00:52;;;;;;;15.10;10.98;;;;;;;17.42;100.00;101326.97;10441646;28;20051;-78
2022/08/19 21:05:54;;;;;;;13.48;10.68;;;;;;;17.48;100.00;101324.50;10442327;28;20503;-78
2022/08/19 21:10:56;;;;;;;12.43;10.27;;;;;;;17.43;100.00;101323.47;10443559;28;20475;-78
2022/08/19 21:15:56;;;;;;;22.27;11.18;;;;;;;17.40;100.00;101316.38;10424180;28;20116;-77
2022/08/19 21:20:57;;;;;;;17.88;11.40;;;;;;;17.36;100.00;101311.84;10442393;28;20846;-78
2022/08/19 21:25:58;;;;;;;16.65;11.88;;;;;;;17.37;100.00;101307.44;10440949;28;20029;-77
2022/08/19 21:30:59;;;;;;;18.42;12.90;;;;;;;17.35;100.00;101317.09;10408292;28;20064;-77
2022/08/19 21:35:59;;;;;;;17.58;12.57;;;;;;;17.32;100.00;101310.84;10424831;28;20115;-77
2022/08/19 21:41:01;;;;;;;17.95;12.20;;;;;;;17.35;100.00;101315.34;10442000;28;20033;-77
2022/08/19 21:46:01;;;;;;;17.67;14.97;;;;;;;17.36;100.00;101317.16;10398771;28;20037;-78
2022/08/19 21:51:02;;;;;;;20.23;13.80;;;;;;;17.34;100.00;101313.56;10390846;28;20279;-78
2022/08/19 21:56:05;;;;;;;18.77;13.43;;;;;;;17.32;100.00;101313.50;10410255;28;20026;-78
2022/08/19 22:01:06;;;;;;;31.50;18.15;;;;;;;17.48;100.00;101315.69;10407850;28;20064;-78
2022/08/19 22:06:08;;;;;;;20.67;14.70;;;;;;;17.51;100.00;101314.00;10390340;28;20401;-78
2022/08/19 22:11:08;;;;;;;21.37;14.43;;;;;;;17.53;100.00;101320.22;10390538;28;20276;-79
2022/08/19 22:16:09;;;;;;;23.95;14.43;;;;;;;17.53;100.00;101324.63;10407656;28;20161;-78
2022/08/19 22:21:09;;;;;;;19.77;14.13;;;;;;;17.52;100.00;101325.50;10406733;28;20034;-78
2022/08/19 22:26:14;;;;;;;23.30;15.48;;;;;;;17.54;100.00;101329.94;10408220;28;20120;-78
2022/08/19 22:31:14;;;;;;;21.25;16.13;;;;;;;17.55;100.00;101331.75;10447133;28;20033;-78
2022/08/19 22:36:16;;;;;;;28.25;18.52;;;;;;;17.64;100.00;101331.09;10448992;28;20067;-78
2022/08/19 22:41:16;;;;;;;25.23;16.27;;;;;;;17.61;100.00;101338.97;10430336;28;20660;-78
2022/08/19 22:46:17;;;;;;;25.25;17.52;;;;;;;17.66;100.00;101341.72;10448013;28;20036;-78
2022/08/19 22:56:36;;;;;;;32.72;20.58;;;;;;;17.76;100.00;101349.03;10408340;28;20030;-79
2022/08/19 23:01:40;;;;;;;31.85;19.42;;;;;;;17.75;100.00;101340.22;10404429;28;20049;-78
2022/08/19 23:06:41;;;;;;;37.25;22.42;;;;;;;17.73;100.00;101338.38;10406800;28;20037;-79
2022/08/19 23:11:42;;;;;;;34.40;23.08;;;;;;;17.72;100.00;101337.50;10406066;28;20511;-79
2022/08/19 23:16:44;;;;;;;34.17;22.95;;;;;;;17.72;100.00;101332.19;10405755;28;20116;-79
2022/08/19 23:21:44;;;;;;;30.27;20.63;;;;;;;17.68;100.00;101335.63;10388151;28;20037;-79